Parsival — V2MS — position and weather

sailwx.info

Track history (hours):
 
Tides and Currents Weather Stations Pressure Air Temp Water Temp Dewpoint Dewpoint Depression Visibility Wind Speed Wind Dir Waves Ship Positions

Parsival

Last reported at 2015-Feb-25 17:07 UTC. Time now 2015-Mar-01 00:40 UTC.
Position N 37°43' E 024°19'.

; draft 3.5 m.

Type: Cargo ship. MMSI: 304010881.

Date/timePositionNaut miles runAvg speedWind from/ knotsBaromVisibWave heightAir tempDewpointWater temp
2015-Feb-25 17:07N 37°43' E 024°19'9 9.2
2015-Feb-25 16:06N 37°37' E 024°10'14 9.0
2015-Feb-25 14:33N 37°37' E 023°52'9 9.2
2015-Feb-25 13:33N 37°41' E 023°42'9 9.3
2015-Feb-25 12:33N 37°49' E 023°36'1010.0
2015-Feb-25 11:33N 37°51' E 023°23'11 9.8
2015-Feb-25 10:26N 37°52' E 023°10'  
2015-Feb-20 04:33N 38°08' E 022°35'  
2015-Feb-17 16:32N 36°29' E 014°21'7 7.3
2015-Feb-17 15:34N 36°30' E 014°13'8 7.3
2015-Feb-17 14:27N 36°33' E 014°03'  
Track history (hours):
 
Tides and Currents Weather Stations Pressure Air Temp Water Temp Dewpoint Dewpoint Depression Visibility Wind Speed Wind Dir Waves Ship Positions

Parsival

Last reported at 2015-Feb-25 17:07 UTC. Time now 2015-Mar-01 00:40 UTC.
Position N 37°43' E 024°19'.

; draft 3.5 m.

Type: Cargo ship. MMSI: 304010881.

Date/timePositionNaut miles runAvg speedWind from/ knotsBaromVisibWave heightAir tempDewpointWater temp
2015-Feb-25 17:07N 37°43' E 024°19'9 9.2
2015-Feb-25 16:06N 37°37' E 024°10'14 9.0
2015-Feb-25 14:33N 37°37' E 023°52'9 9.2
2015-Feb-25 13:33N 37°41' E 023°42'9 9.3
2015-Feb-25 12:33N 37°49' E 023°36'1010.0
2015-Feb-25 11:33N 37°51' E 023°23'11 9.8
2015-Feb-25 10:26N 37°52' E 023°10'  
2015-Feb-20 04:33N 38°08' E 022°35'  
2015-Feb-17 16:32N 36°29' E 014°21'7 7.3
2015-Feb-17 15:34N 36°30' E 014°13'8 7.3
2015-Feb-17 14:27N 36°33' E 014°03'  

Dump ship's entire track history